Time;durP1;ratioP1;P1;durP2;ratioP2;P2;SDS_P1;SDS_P2;PMS_P1;PMS_P2;Temp;Humidity;BMP_temperature;BMP_pressure;BME280_temperature;BME280_humidity;BME280_pressure;Samples;Min_cycle;Max_cycle;Signal;HPM_P1;HPM_P2
2022/02/10 00:15:02;;;;;;;17.93;11.40;;;5.80;99.90;;;;;;5018106;28;20446;-92
2022/02/10 00:17:38;;;;;;;15.17;11.87;;;5.70;99.90;;;;;;5018916;28;20581;-92
2022/02/10 00:20:20;;;;;;;16.10;12.60;;;5.80;99.90;;;;;;5018307;28;20907;-91
2022/02/10 00:23:09;;;;;;;15.77;11.97;;;5.70;99.90;;;;;;5017449;28;20472;-92
2022/02/10 00:34:07;;;;;;;16.93;12.53;;;5.70;99.90;;;;;;5017888;28;20484;-91
2022/02/10 00:34:24;;;;;;;14.63;11.83;;;5.50;99.90;;;;;;5022107;28;20536;-91
2022/02/10 00:37:08;;;;;;;12.60;11.30;;;5.40;99.90;;;;;;5019406;28;20475;-91
2022/02/10 00:40:01;;;;;;;15.13;12.40;;;5.40;99.90;;;;;;5020824;28;20454;-90
2022/02/10 00:42:28;;;;;;;18.70;13.03;;;5.40;99.90;;;;;;5038395;28;20434;-90
2022/02/10 00:44:55;;;;;;;19.63;12.73;;;5.40;99.90;;;;;;5019670;28;20477;-92
2022/02/10 00:47:26;;;;;;;18.57;13.47;;;5.30;99.90;;;;;;5017240;28;20989;-92
2022/02/10 00:49:53;;;;;;;13.20;10.80;;;5.30;99.90;;;;;;5023823;28;20465;-89
2022/02/10 00:52:20;;;;;;;19.07;14.00;;;5.20;99.90;;;;;;5027752;28;20444;-90
2022/02/10 00:54:54;;;;;;;21.83;12.10;;;5.20;99.90;;;;;;5028810;28;20466;-92
2022/02/10 00:57:24;;;;;;;16.97;12.73;;;5.30;99.90;;;;;;5031050;28;20482;-91
2022/02/10 01:00:06;;;;;;;15.50;12.33;;;5.30;99.90;;;;;;5018303;28;20446;-90
2022/02/10 01:11:05;;;;;;;15.77;13.23;;;5.20;99.90;;;;;;5035449;28;20524;-91
2022/02/10 01:13:47;;;;;;;20.77;13.23;;;5.20;99.90;;;;;;5025080;28;20541;-90
2022/02/10 01:24:35;;;;;;;15.63;11.67;;;5.10;99.90;;;;;;5020769;28;20918;-91
2022/02/10 01:29:48;;;;;;;19.77;12.17;;;5.00;99.90;;;;;;5017236;28;20417;-91
2022/02/10 01:32:16;;;;;;;16.27;10.57;;;5.00;99.90;;;;;;4996447;28;20801;-91
2022/02/10 01:34:51;;;;;;;17.17;12.47;;;5.00;99.90;;;;;;5004385;28;20474;-92
2022/02/10 01:37:19;;;;;;;18.10;10.90;;;5.00;99.90;;;;;;5029304;28;20457;-91
2022/02/10 01:39:50;;;;;;;16.10;12.00;;;5.00;99.90;;;;;;5019417;28;20468;-91
2022/02/10 02:04:23;;;;;;;12.93;10.40;;;5.00;99.90;;;;;;5032406;28;20433;-91
2022/02/10 02:06:54;;;;;;;19.50;11.87;;;5.00;99.90;;;;;;5034869;28;20502;-92
2022/02/10 02:09:21;;;;;;;14.57;11.50;;;5.00;99.90;;;;;;5030720;28;20454;-91
2022/02/10 02:11:52;;;;;;;16.07;11.60;;;5.00;99.90;;;;;;5035658;28;20470;-91
2022/02/10 02:14:21;;;;;;;18.07;12.70;;;5.00;99.90;;;;;;5032628;28;20446;-91
2022/02/10 02:16:48;;;;;;;13.63;9.10;;;4.90;99.90;;;;;;5017021;28;20445;-92
2022/02/10 02:19:15;;;;;;;15.33;10.30;;;4.90;99.90;;;;;;5019797;28;20456;-91
2022/02/10 02:21:43;;;;;;;12.30;9.70;;;5.00;99.90;;;;;;5023988;28;20432;-91
2022/02/10 02:24:19;;;;;;;15.40;10.60;;;5.00;99.90;;;;;;5029072;28;20430;-90
2022/02/10 02:26:47;;;;;;;16.60;11.70;;;5.00;99.90;;;;;;5037775;28;20470;-90
2022/02/10 02:29:16;;;;;;;14.23;11.10;;;5.00;99.90;;;;;;5021411;28;20512;-91
2022/02/10 02:31:47;;;;;;;15.30;11.10;;;4.90;99.90;;;;;;5016938;28;20872;-91
2022/02/10 02:40:22;;;;;;;14.40;11.80;;;4.90;99.90;;;;;;5018433;28;20814;-90
2022/02/10 03:05:24;;;;;;;11.57;10.30;;;4.80;99.90;;;;;;5019285;28;20470;-91
2022/02/10 03:07:55;;;;;;;11.83;10.07;;;4.70;99.90;;;;;;5019542;28;20470;-91
2022/02/10 03:13:13;;;;;;;15.73;10.07;;;4.70;99.90;;;;;;5026773;28;20445;-90
2022/02/10 03:15:57;;;;;;;14.23;10.00;;;4.70;99.90;;;;;;5030156;28;20453;-90
2022/02/10 03:18:41;;;;;;;10.83;8.80;;;4.70;99.90;;;;;;5019406;28;20484;-90
2022/02/10 04:04:07;;;;;;;14.10;9.73;;;4.40;99.90;;;;;;5091089;28;20547;-91
2022/02/10 04:06:54;;;;;;;12.23;8.93;;;4.30;99.90;;;;;;5155206;27;20448;-91
2022/02/10 04:15:04;;;;;;;11.73;9.43;;;4.50;99.90;;;;;;5107871;28;20428;-91
2022/02/10 04:17:49;;;;;;;10.97;8.53;;;4.40;99.90;;;;;;5151850;22;20482;-87
2022/02/10 04:20:39;;;;;;;9.80;8.53;;;4.50;99.90;;;;;;5112503;28;20443;-88
2022/02/10 04:23:15;;;;;;;15.53;9.63;;;4.50;99.90;;;;;;5098191;28;20506;-89
2022/02/10 04:25:54;;;;;;;12.13;8.80;;;4.50;99.90;;;;;;5110198;28;20426;-85
2022/02/10 04:28:36;;;;;;;9.27;8.23;;;4.50;99.90;;;;;;5121751;27;20465;-89
2022/02/10 04:31:29;;;;;;;9.77;8.80;;;4.40;99.90;;;;;;5119764;28;20430;-89
2022/02/10 04:56:05;;;;;;;17.93;9.20;;;4.30;99.90;;;;;;5116605;28;20445;-87
2022/02/10 04:58:48;;;;;;;8.57;7.70;;;4.30;99.90;;;;;;5108852;28;20468;-88
2022/02/10 05:18:29;;;;;;;10.80;8.17;;;4.50;99.90;;;;;;5061714;28;20539;-89
2022/02/10 05:21:25;;;;;;;11.07;8.97;;;4.50;99.90;;;;;;5060888;28;20509;-89
2022/02/10 05:24:11;;;;;;;12.57;7.50;;;4.60;99.90;;;;;;5059454;28;20594;-89
2022/02/10 05:35:00;;;;;;;12.10;7.47;;;4.50;99.90;;;;;;5099411;28;20443;-90
2022/02/10 05:37:31;;;;;;;10.27;8.20;;;4.50;99.90;;;;;;5104257;28;20526;-90
2022/02/10 05:39:59;;;;;;;13.00;8.23;;;4.50;99.90;;;;;;5102303;28;20434;-89
2022/02/10 05:45:24;;;;;;;11.77;9.50;;;4.40;99.90;;;;;;5075221;28;20433;-89
2022/02/10 05:48:07;;;;;;;12.13;8.63;;;4.30;99.90;;;;;;5103575;28;20469;-88
2022/02/10 05:56:22;;;;;;;15.43;10.53;;;4.20;99.90;;;;;;5154726;27;20453;-89
2022/02/10 06:02:01;;;;;;;8.00;7.20;;;4.10;99.90;;;;;;5121038;28;20433;-89
2022/02/10 06:49:29;;;;;;;18.20;11.53;;;3.80;99.90;;;;;;5099078;28;20459;-89
2022/02/10 06:52:04;;;;;;;16.53;10.63;;;3.70;99.90;;;;;;5137203;28;20476;-90
2022/02/10 06:54:45;;;;;;;15.73;11.90;;;3.80;99.90;;;;;;5141142;27;20771;-90
2022/02/10 07:05:47;;;;;;;16.07;10.37;;;3.80;99.90;;;;;;5063315;28;20468;-90
2022/02/10 07:08:31;;;;;;;14.23;12.47;;;3.90;99.90;;;;;;5093390;28;20532;-89
2022/02/10 07:11:16;;;;;;;11.93;9.73;;;4.00;99.90;;;;;;5107636;28;20458;-88
2022/02/10 07:49:58;;;;;;;17.43;11.40;;;4.80;99.90;;;;;;5075220;28;20421;-91
2022/02/10 07:52:53;;;;;;;14.57;10.97;;;4.90;99.90;;;;;;5089700;28;20486;-91
2022/02/10 07:58:26;;;;;;;12.37;9.90;;;5.00;99.90;;;;;;5029071;28;20543;-89
2022/02/10 08:04:24;;;;;;;16.10;9.83;;;5.10;99.90;;;;;;5099450;28;20437;-88
2022/02/10 08:49:53;;;;;;;21.77;11.27;;;10.30;92.70;;;;;;5082628;28;20542;-86
2022/02/10 08:55:38;;;;;;;12.90;10.23;;;10.50;91.00;;;;;;5072829;28;20462;-87
2022/02/10 09:06:27;;;;;;;12.43;9.00;;;11.10;90.50;;;;;;5078742;28;20440;-88
2022/02/10 09:09:31;;;;;;;24.80;9.60;;;11.30;90.50;;;;;;5068694;28;20543;-87
2022/02/10 09:12:19;;;;;;;8.60;7.10;;;12.00;90.00;;;;;;5076298;28;20613;-87
2022/02/10 09:21:00;;;;;;;11.03;6.43;;;12.60;85.40;;;;;;5072024;28;20429;-89
2022/02/10 09:56:57;;;;;;;9.47;4.90;;;14.60;78.50;;;;;;5054168;28;20462;-90
2022/02/10 09:59:37;;;;;;;9.93;4.83;;;15.20;77.20;;;;;;5073524;28;20522;-89
2022/02/10 10:05:31;;;;;;;5.43;4.10;;;16.00;72.90;;;;;;5098035;28;20418;-90
2022/02/10 10:08:28;;;;;;;6.63;4.50;;;15.50;72.70;;;;;;5098056;28;20510;-89
2022/02/10 10:14:12;;;;;;;6.20;4.10;;;15.10;74.50;;;;;;5058811;28;20450;-90
2022/02/10 10:17:08;;;;;;;8.07;4.40;;;15.00;74.50;;;;;;5086265;28;20444;-89
2022/02/10 10:20:00;;;;;;;6.30;5.00;;;15.60;75.20;;;;;;5072723;28;20436;-89
2022/02/10 10:23:13;;;;;;;6.27;5.10;;;15.60;72.60;;;;;;5083937;28;20441;-89
2022/02/10 10:49:10;;;;;;;6.40;4.50;;;25.30;52.30;;;;;;5070655;28;20450;-88
2022/02/10 10:51:24;;;;;;;7.40;5.20;;;27.10;48.60;;;;;;5071021;28;20427;-88
2022/02/10 10:53:58;;;;;;;9.57;4.87;;;25.90;47.60;;;;;;5075091;28;20482;-89
2022/02/10 10:56:31;;;;;;;6.60;4.27;;;24.60;48.30;;;;;;5076158;28;20535;-89
2022/02/10 10:59:14;;;;;;;8.37;4.77;;;22.80;50.10;;;;;;5073763;28;20481;-88
2022/02/10 12:01:10;;;;;;;9.23;6.03;;;20.40;56.20;;;;;;5082701;28;20432;-88
2022/02/10 12:37:52;;;;;;;10.27;8.03;;;16.70;67.40;;;;;;5073750;28;21577;-89
2022/02/10 19:36:16;;;;;;;5.93;4.27;;;8.90;91.80;;;;;;4962521;28;20438;-87
2022/02/10 19:38:43;;;;;;;8.57;7.03;;;8.90;91.50;;;;;;4963338;28;20441;-87
2022/02/10 19:41:10;;;;;;;5.50;4.93;;;8.90;91.60;;;;;;4988781;28;20455;-88
2022/02/10 19:43:38;;;;;;;10.07;6.50;;;8.90;91.60;;;;;;4996112;28;20471;-87
2022/02/10 19:46:05;;;;;;;9.87;4.57;;;8.90;91.60;;;;;;4989614;28;20539;-89
2022/02/10 19:48:31;;;;;;;5.07;3.67;;;8.90;91.70;;;;;;4996972;28;21092;-88
2022/02/10 19:50:58;;;;;;;13.00;4.27;;;8.80;92.00;;;;;;4999303;28;20439;-87
2022/02/10 19:53:28;;;;;;;4.60;4.03;;;8.70;92.10;;;;;;4992543;28;21019;-91
2022/02/10 19:55:55;;;;;;;5.20;4.20;;;8.70;92.20;;;;;;4994675;28;20959;-90
2022/02/10 19:58:24;;;;;;;4.90;4.30;;;8.70;92.30;;;;;;4992892;28;20448;-90
2022/02/10 20:00:57;;;;;;;6.97;5.50;;;8.70;92.20;;;;;;4992142;28;20462;-91
2022/02/10 20:03:26;;;;;;;7.10;4.77;;;8.70;92.20;;;;;;4989178;28;20478;-90
2022/02/10 20:05:53;;;;;;;5.40;4.37;;;8.70;92.40;;;;;;4989501;28;20450;-89
2022/02/10 20:08:22;;;;;;;7.70;3.70;;;8.70;92.50;;;;;;4990101;28;20452;-90
2022/02/10 20:10:53;;;;;;;6.50;4.60;;;8.70;92.60;;;;;;4992060;28;20956;-90
2022/02/10 20:13:21;;;;;;;4.20;3.80;;;8.60;92.60;;;;;;4989805;28;20471;-90
2022/02/10 20:15:50;;;;;;;6.13;4.40;;;8.60;92.70;;;;;;4989786;28;20483;-90
2022/02/10 20:18:19;;;;;;;4.87;3.73;;;8.50;92.90;;;;;;4987819;28;20478;-91
2022/02/10 20:20:47;;;;;;;5.10;4.60;;;8.50;93.10;;;;;;4991514;28;20829;-91
2022/02/10 20:23:15;;;;;;;5.20;4.70;;;8.50;93.10;;;;;;4993693;28;20499;-92
2022/02/10 20:25:42;;;;;;;5.67;4.03;;;8.40;93.10;;;;;;4992573;28;20499;-91
2022/02/10 20:28:09;;;;;;;4.60;4.03;;;8.40;93.20;;;;;;4990232;28;20463;-91
2022/02/10 20:30:37;;;;;;;6.00;4.30;;;8.40;93.20;;;;;;4990805;28;20447;-91
2022/02/10 20:33:04;;;;;;;5.40;4.90;;;8.30;93.40;;;;;;4991750;28;20463;-91
2022/02/10 20:35:43;;;;;;;5.57;5.07;;;8.40;93.40;;;;;;4989540;28;20865;-91
2022/02/10 20:38:16;;;;;;;19.13;17.03;;;8.40;93.40;;;;;;4995739;28;21210;-91
2022/02/10 20:40:45;;;;;;;5.47;4.97;;;8.50;93.50;;;;;;4994760;28;20475;-91
2022/02/10 20:43:12;;;;;;;4.67;4.00;;;8.50;93.40;;;;;;4994777;28;20481;-92
2022/02/10 20:45:40;;;;;;;6.20;4.23;;;8.60;93.30;;;;;;4995550;28;20439;-90
2022/02/10 20:48:08;;;;;;;6.27;4.10;;;8.60;93.30;;;;;;5001537;28;20444;-90
2022/02/10 20:50:37;;;;;;;5.40;4.57;;;8.60;93.30;;;;;;4993241;28;20460;-92
2022/02/10 20:53:04;;;;;;;5.60;4.57;;;8.60;93.30;;;;;;4987820;28;20483;-92
2022/02/10 20:55:30;;;;;;;3.90;3.50;;;8.60;93.20;;;;;;5013241;28;20458;-91
2022/02/10 20:58:01;;;;;;;5.30;4.20;;;8.60;93.20;;;;;;5005842;28;20482;-91
2022/02/10 21:00:32;;;;;;;9.73;4.70;;;8.60;93.30;;;;;;5014582;28;20443;-90
2022/02/10 21:02:59;;;;;;;10.33;4.63;;;8.60;93.30;;;;;;4994232;28;20524;-91
2022/02/10 21:05:32;;;;;;;5.13;4.00;;;8.60;93.30;;;;;;4997023;28;20472;-91
2022/02/10 21:08:26;;;;;;;5.50;4.40;;;8.60;93.50;;;;;;5003900;28;20416;-91
2022/02/10 21:10:53;;;;;;;5.40;4.80;;;8.60;93.40;;;;;;5005187;28;20454;-92
2022/02/10 21:13:22;;;;;;;5.97;4.90;;;8.60;93.50;;;;;;4998207;28;20471;-91
2022/02/10 21:15:49;;;;;;;6.20;4.97;;;8.60;93.50;;;;;;5013207;28;20506;-91
2022/02/10 21:18:18;;;;;;;7.27;4.80;;;8.70;93.50;;;;;;5016308;28;20443;-89
2022/02/10 21:20:45;;;;;;;4.60;4.20;;;8.70;93.50;;;;;;5013597;28;20446;-92
2022/02/10 21:23:21;;;;;;;5.03;4.20;;;8.70;93.40;;;;;;5006377;28;20482;-90
2022/02/10 21:25:54;;;;;;;5.40;4.03;;;8.80;93.30;;;;;;5007794;28;20928;-93
2022/02/10 21:28:26;;;;;;;4.30;3.80;;;8.80;93.30;;;;;;5003272;28;20455;-91
2022/02/10 21:30:57;;;;;;;5.77;4.43;;;8.90;93.20;;;;;;5012842;28;20439;-90
2022/02/10 21:33:44;;;;;;;6.30;5.30;;;8.90;93.00;;;;;;5172618;23;20514;-91
2022/02/10 21:53:56;;;;;;;7.93;6.60;;;8.70;94.20;;;;;;4974933;28;20425;-92
2022/02/10 21:56:32;;;;;;;8.43;5.97;;;8.70;94.30;;;;;;5030248;28;20492;-90
2022/02/10 22:10:07;;;;;;;11.20;7.07;;;8.70;94.40;;;;;;5032941;28;20441;-93
2022/02/10 22:18:34;;;;;;;12.73;6.47;;;8.50;95.10;;;;;;5026329;28;20456;-91
2022/02/10 22:21:06;;;;;;;10.27;7.70;;;8.60;95.20;;;;;;5026944;28;20541;-91
2022/02/10 22:23:42;;;;;;;9.80;7.67;;;8.60;95.20;;;;;;5025877;28;20469;-91
2022/02/10 22:26:17;;;;;;;9.57;7.90;;;8.70;95.10;;;;;;5036197;28;20452;-91
2022/02/10 22:28:50;;;;;;;10.03;7.83;;;8.70;95.20;;;;;;5031149;28;20454;-92
2022/02/10 22:36:53;;;;;;;11.47;7.77;;;8.70;95.00;;;;;;5034985;28;20498;-92
2022/02/10 22:39:21;;;;;;;9.77;8.30;;;8.80;95.00;;;;;;5037471;28;20437;-91
2022/02/10 22:41:48;;;;;;;13.70;9.30;;;8.80;95.10;;;;;;5032967;28;20446;-91
2022/02/10 22:44:15;;;;;;;8.43;7.43;;;8.80;95.10;;;;;;5038469;28;20490;-90
2022/02/10 22:46:43;;;;;;;9.13;8.20;;;8.80;95.10;;;;;;5041609;28;20456;-92
2022/02/10 22:49:10;;;;;;;7.87;7.17;;;8.80;95.20;;;;;;5037000;28;20477;-91
2022/02/10 22:54:14;;;;;;;9.13;7.40;;;8.80;95.10;;;;;;4985184;28;20482;-92
2022/02/10 22:56:47;;;;;;;9.33;7.90;;;8.90;95.10;;;;;;4988566;28;20511;-91
2022/02/10 22:59:22;;;;;;;10.13;8.30;;;8.90;95.10;;;;;;4990189;28;20448;-91
2022/02/10 23:01:57;;;;;;;10.13;8.20;;;8.90;95.10;;;;;;4992390;28;20485;-92
2022/02/10 23:04:26;;;;;;;12.03;8.60;;;8.90;95.00;;;;;;4998879;28;20471;-91
2022/02/10 23:07:05;;;;;;;11.00;8.17;;;8.90;95.00;;;;;;5012031;28;20458;-91
2022/02/10 23:09:48;;;;;;;9.40;8.40;;;8.80;95.10;;;;;;5010069;28;20427;-92
2022/02/10 23:12:22;;;;;;;10.93;8.17;;;8.90;95.00;;;;;;5012231;28;20501;-92
2022/02/10 23:15:04;;;;;;;12.30;8.70;;;8.80;95.10;;;;;;5007600;28;20435;-91
2022/02/10 23:17:39;;;;;;;10.07;8.50;;;8.80;95.20;;;;;;5001455;28;20459;-92
2022/02/10 23:20:22;;;;;;;10.30;8.87;;;8.80;95.00;;;;;;5001696;28;20793;-91
2022/02/10 23:22:53;;;;;;;11.97;10.77;;;8.80;95.00;;;;;;5002091;28;20551;-91
2022/02/10 23:25:28;;;;;;;12.43;8.80;;;8.80;95.00;;;;;;4995022;28;20987;-91
2022/02/10 23:28:01;;;;;;;11.50;8.90;;;8.80;95.00;;;;;;4992291;28;20445;-91
2022/02/10 23:30:34;;;;;;;11.00;8.63;;;8.90;95.20;;;;;;4987039;28;20452;-92
2022/02/10 23:33:17;;;;;;;8.50;7.70;;;8.90;95.20;;;;;;4983451;28;20992;-91
